メインページ
METAR-TAF:

METAR-TAF

空港 :

仙台空港

仙台, 日本

緯度: 38-08N, 経度: 140-55E, 海抜: 1m

現時点の気象観測

当レポートは40分前の12:00(UTC)に作成
変向風 2kt
気温 14°C
湿度 94%
気圧 1011 hPa
視程10km以上
高度5000ftの雲はほとんどない
千切れ雲あり

METAR: RJSS 161200Z VRB02KT 9999 FEW050 BKN/// 14/13 Q1011

時間: 21:40 (12:40 UTC)

予報

当レポートは1時間35分前の11:05(UTC)に作成
予報は16日の 12時(UTC)から 17日の 18時(UTC)まで有効
西の風 6kt
視程10km以上
高度2000ftの雲はほとんどない
高度4000ftの千切れ雲あり
16日の 19時(UTC)から 16日の 21時(UTC)まで徐々に
北/北西の風 13kt
16日の 21時(UTC)から 17日の 03時(UTC)まで一時的に
視程: 4000m
にわか雨, 靄
17日の 00時(UTC)から 17日の 03時(UTC)まで徐々に
北/北東の風 7kt
17日の 09時(UTC)から 17日の 12時(UTC)まで徐々に
北/北西の風 4kt

TAF: RJSS 161105Z 1612/1718 28006KT 9999 FEW020 BKN040 BECMG 1619/1621 34013KT TEMPO 1621/1703 4000 SHRA BR BECMG 1700/1703 02007KT BECMG 1709/1712 34004KT

4,000以上の空港の気象観測と天気予報(METAR報とTAF報)

利用可能な観測所は地図上に黄色い丸と赤い丸で示す。

丸の上にカーソルを重ねると観測所名を参照できる。

次にクリックすると気象観測と天気予報を参照できる。

マップの切り替え:黒色「×」印の緑ボタンをクリックして拡大、「-」印の緑ボタンをクリックして縮小、緑色の三角印をクリックして隣りの地図に切り替え


METAR-TAF: